Time;durP1;ratioP1;P1;durP2;ratioP2;P2;SDS_P1;SDS_P2;PMS_P1;PMS_P2;Temp;Humidity;BMP_temperature;BMP_pressure;BME280_temperature;BME280_humidity;BME280_pressure;Samples;Min_cycle;Max_cycle;Signal;HPM_P1;HPM_P2
2021/07/09 00:01:25;;;;;;;13.82;6.93;;;26.90;71.20;;;;;;5047909;28;20071;-81
2021/07/09 00:03:50;;;;;;;11.75;7.38;;;26.80;71.30;;;;;;5047997;28;20064;-81
2021/07/09 00:06:19;;;;;;;9.75;7.30;;;26.80;71.50;;;;;;5046821;28;20059;-81
2021/07/09 00:08:45;;;;;;;12.20;8.07;;;26.80;71.80;;;;;;5046724;28;20089;-82
2021/07/09 00:11:11;;;;;;;12.38;7.43;;;26.80;71.90;;;;;;5046425;28;20446;-82
2021/07/09 00:13:37;;;;;;;14.02;7.68;;;26.80;71.80;;;;;;5046582;28;20063;-81
2021/07/09 00:16:03;;;;;;;8.57;7.03;;;26.80;71.90;;;;;;5046422;28;20047;-81
2021/07/09 00:18:29;;;;;;;13.75;7.40;;;26.80;71.70;;;;;;5045960;28;20130;-80
2021/07/09 00:20:55;;;;;;;11.55;7.05;;;26.70;72.00;;;;;;5046248;28;20124;-78
2021/07/09 00:23:21;;;;;;;14.48;7.40;;;26.60;72.30;;;;;;5045725;28;20032;-79
2021/07/09 00:25:47;;;;;;;14.07;7.75;;;26.50;72.50;;;;;;5047310;28;20036;-80
2021/07/09 00:28:12;;;;;;;14.27;7.90;;;26.50;72.80;;;;;;5047331;28;20029;-76
2021/07/09 00:30:38;;;;;;;15.38;7.25;;;26.50;72.90;;;;;;5045997;28;20123;-81
2021/07/09 00:33:03;;;;;;;9.30;7.07;;;26.50;72.70;;;;;;5047206;28;20036;-80
2021/07/09 00:35:29;;;;;;;11.02;7.70;;;26.40;72.80;;;;;;5048318;28;20242;-79
2021/07/09 00:37:55;;;;;;;9.15;7.72;;;26.40;73.00;;;;;;5048512;28;20767;-81
2021/07/09 00:40:20;;;;;;;15.88;7.38;;;26.40;73.00;;;;;;5066940;28;20033;-79
2021/07/09 00:42:46;;;;;;;11.20;7.35;;;26.30;73.00;;;;;;5049459;28;20016;-82
2021/07/09 00:45:13;;;;;;;10.73;7.30;;;26.30;73.10;;;;;;5067040;28;20524;-80
2021/07/09 00:47:43;;;;;;;19.92;7.72;;;26.30;73.10;;;;;;5067115;28;20106;-81
2021/07/09 00:50:09;;;;;;;13.32;7.88;;;26.30;73.30;;;;;;5049594;28;20047;-82
2021/07/09 00:52:35;;;;;;;13.35;7.13;;;26.30;73.50;;;;;;5048826;28;20450;-81
2021/07/09 00:55:00;;;;;;;11.70;7.88;;;26.30;73.40;;;;;;5049201;28;20033;-80
2021/07/09 00:57:27;;;;;;;10.98;7.65;;;26.20;73.50;;;;;;5066750;28;20067;-80
2021/07/09 00:59:54;;;;;;;16.38;8.45;;;26.20;73.70;;;;;;5066810;28;20028;-80
2021/07/09 01:02:19;;;;;;;10.27;6.47;;;26.20;73.50;;;;;;5066687;28;20162;-81
2021/07/09 01:04:45;;;;;;;13.70;7.63;;;26.20;73.40;;;;;;5048825;28;20483;-81
2021/07/09 01:07:11;;;;;;;10.75;7.65;;;26.20;73.50;;;;;;5066543;28;20608;-81
2021/07/09 01:09:37;;;;;;;11.13;7.40;;;26.10;73.60;;;;;;5048948;28;20711;-81
2021/07/09 01:12:03;;;;;;;9.63;7.50;;;26.10;73.70;;;;;;5049028;28;20054;-81
2021/07/09 01:14:29;;;;;;;12.57;7.60;;;26.00;73.70;;;;;;5066226;28;20162;-81
2021/07/09 01:16:55;;;;;;;10.27;7.18;;;26.00;73.90;;;;;;5048967;28;20028;-80
2021/07/09 01:19:21;;;;;;;8.45;6.65;;;26.00;74.10;;;;;;5066419;28;20025;-82
2021/07/09 01:21:48;;;;;;;9.25;7.10;;;26.00;74.10;;;;;;5066984;28;20111;-80
2021/07/09 01:24:16;;;;;;;9.35;6.97;;;25.90;74.10;;;;;;5048696;28;20111;-81
2021/07/09 01:26:42;;;;;;;15.00;7.57;;;25.90;74.20;;;;;;5066177;28;20536;-81
2021/07/09 01:29:08;;;;;;;10.85;7.13;;;25.90;73.90;;;;;;5066299;28;20032;-80
2021/07/09 01:31:35;;;;;;;7.75;6.90;;;25.90;73.90;;;;;;5048447;28;20497;-81
2021/07/09 01:34:02;;;;;;;9.23;6.80;;;25.80;73.40;;;;;;5060338;28;20143;-80
2021/07/09 01:36:27;;;;;;;8.05;6.80;;;25.90;73.30;;;;;;5048274;28;20259;-81
2021/07/09 01:38:53;;;;;;;10.65;6.57;;;25.90;72.50;;;;;;5066572;28;20447;-81
2021/07/09 01:41:22;;;;;;;8.55;6.40;;;25.90;72.60;;;;;;5066264;28;20032;-81
2021/07/09 01:43:48;;;;;;;9.05;6.43;;;25.90;73.30;;;;;;5048232;28;20043;-82
2021/07/09 01:46:14;;;;;;;11.20;6.97;;;25.90;73.30;;;;;;5065850;28;20053;-81
2021/07/09 01:48:41;;;;;;;26.08;7.55;;;25.90;73.10;;;;;;5065807;28;20401;-80
2021/07/09 01:51:07;;;;;;;9.88;6.45;;;25.80;73.20;;;;;;5070380;28;20040;-81
2021/07/09 01:53:33;;;;;;;12.02;6.25;;;25.90;72.30;;;;;;5052368;28;20021;-81
2021/07/09 01:55:58;;;;;;;13.52;5.40;;;25.90;71.80;;;;;;5070086;28;20067;-79
2021/07/09 01:58:24;;;;;;;8.43;5.97;;;26.00;71.60;;;;;;5051966;28;20025;-80
2021/07/09 02:00:50;;;;;;;19.50;6.35;;;26.00;71.40;;;;;;5069989;28;20473;-80
2021/07/09 02:03:16;;;;;;;8.73;6.15;;;26.10;71.30;;;;;;5051186;28;20147;-80
2021/07/09 02:05:42;;;;;;;15.70;6.25;;;26.10;71.10;;;;;;5069965;28;20123;-79
2021/07/09 02:08:08;;;;;;;7.20;6.00;;;26.10;71.00;;;;;;5051619;28;20032;-80
2021/07/09 02:10:39;;;;;;;13.68;6.55;;;26.10;71.30;;;;;;5051813;28;20025;-79
2021/07/09 02:13:05;;;;;;;9.68;6.50;;;26.10;71.50;;;;;;5051838;28;20466;-80
2021/07/09 02:15:39;;;;;;;10.85;5.88;;;26.00;71.30;;;;;;5051345;28;20118;-78
2021/07/09 02:18:06;;;;;;;9.98;5.90;;;25.90;71.90;;;;;;5069300;28;20117;-79
2021/07/09 02:20:33;;;;;;;14.05;6.40;;;25.90;72.00;;;;;;5051640;28;20040;-79
2021/07/09 02:23:00;;;;;;;15.68;6.10;;;25.80;72.40;;;;;;5069787;28;20040;-80
2021/07/09 02:25:26;;;;;;;14.02;7.40;;;25.80;72.30;;;;;;5051439;28;20020;-81
2021/07/09 02:27:54;;;;;;;10.25;6.13;;;25.80;72.20;;;;;;5051841;28;20059;-79
2021/07/09 02:30:22;;;;;;;9.00;6.60;;;25.80;72.10;;;;;;5068996;28;20362;-80
2021/07/09 02:32:48;;;;;;;10.43;6.55;;;25.90;72.10;;;;;;5051363;28;20314;-80
2021/07/09 02:35:18;;;;;;;17.83;6.95;;;25.90;72.00;;;;;;5050938;28;20032;-80
2021/07/09 02:37:46;;;;;;;8.90;6.90;;;25.90;72.20;;;;;;5051467;28;20615;-80
2021/07/09 02:40:14;;;;;;;15.50;6.75;;;26.00;72.20;;;;;;5051115;28;20017;-79
2021/07/09 02:42:42;;;;;;;11.90;6.85;;;26.00;72.80;;;;;;5050821;28;20132;-80
2021/07/09 02:45:10;;;;;;;18.25;7.78;;;26.10;72.70;;;;;;5051469;28;20120;-80
2021/07/09 02:47:37;;;;;;;17.33;7.47;;;26.00;73.30;;;;;;5050847;28;20486;-80
2021/07/09 02:50:09;;;;;;;16.25;7.57;;;25.90;73.70;;;;;;5051099;28;20409;-79
2021/07/09 02:52:35;;;;;;;14.13;7.25;;;25.80;73.70;;;;;;5050992;28;20039;-79
2021/07/09 02:55:01;;;;;;;18.63;7.90;;;25.80;74.30;;;;;;5051386;28;20177;-79
2021/07/09 02:57:27;;;;;;;14.63;7.95;;;25.70;75.00;;;;;;5069134;28;20036;-79
2021/07/09 02:59:52;;;;;;;10.70;7.45;;;25.60;75.50;;;;;;5066860;28;20029;-80
2021/07/09 03:02:18;;;;;;;23.80;8.57;;;25.60;75.90;;;;;;5067532;28;20111;-78
2021/07/09 03:04:44;;;;;;;12.45;7.72;;;25.50;76.40;;;;;;5049687;28;20539;-80
2021/07/09 03:07:09;;;;;;;16.13;7.53;;;25.40;76.70;;;;;;5051135;28;20032;-78
2021/07/09 03:09:35;;;;;;;10.70;7.18;;;25.30;77.20;;;;;;5050551;28;20051;-81
2021/07/09 03:12:01;;;;;;;15.80;7.50;;;25.30;77.40;;;;;;5067756;28;20139;-80
2021/07/09 03:14:27;;;;;;;14.23;7.85;;;25.30;77.70;;;;;;5050617;28;20024;-82
2021/07/09 03:16:52;;;;;;;9.60;6.80;;;25.20;78.00;;;;;;5051069;28;20098;-78
2021/07/09 03:19:19;;;;;;;11.90;7.93;;;25.10;78.00;;;;;;5050545;28;20020;-78
2021/07/09 03:21:44;;;;;;;14.40;8.27;;;25.20;77.90;;;;;;5068309;28;20473;-78
2021/07/09 03:24:10;;;;;;;13.00;6.65;;;25.20;78.10;;;;;;5067945;28;20074;-78
2021/07/09 03:26:36;;;;;;;17.38;7.50;;;25.20;78.20;;;;;;5050362;28;20473;-78
2021/07/09 03:29:03;;;;;;;15.65;7.40;;;25.20;77.90;;;;;;5050216;28;20185;-78
2021/07/09 03:31:31;;;;;;;15.30;7.10;;;25.20;77.70;;;;;;5049661;28;20032;-79
2021/07/09 03:33:57;;;;;;;10.65;7.25;;;25.30;77.70;;;;;;5050582;28;20788;-79
2021/07/09 03:36:24;;;;;;;13.27;7.38;;;25.30;77.30;;;;;;5050203;28;20048;-78
2021/07/09 03:38:51;;;;;;;13.80;7.03;;;25.30;77.40;;;;;;5067930;28;20032;-78
2021/07/09 03:41:17;;;;;;;10.80;7.28;;;25.40;77.50;;;;;;5050094;28;20442;-78
2021/07/09 03:43:43;;;;;;;11.30;7.07;;;25.40;77.40;;;;;;5049665;28;20066;-78
2021/07/09 03:46:09;;;;;;;11.90;7.50;;;25.40;77.00;;;;;;5049739;28;20020;-77
2021/07/09 03:48:35;;;;;;;11.57;7.65;;;25.50;76.90;;;;;;5045735;28;20021;-77
2021/07/09 03:51:01;;;;;;;15.55;8.02;;;25.50;76.70;;;;;;5046821;28;20524;-77
2021/07/09 03:53:27;;;;;;;9.90;7.78;;;25.60;76.40;;;;;;5047651;28;20553;-76
2021/07/09 03:55:52;;;;;;;16.52;7.03;;;25.70;76.20;;;;;;5047617;28;20036;-78
2021/07/09 03:58:18;;;;;;;13.43;7.35;;;25.70;76.10;;;;;;5046529;28;20022;-77
2021/07/09 04:00:43;;;;;;;17.85;7.35;;;25.80;76.10;;;;;;5047204;28;20041;-77
2021/07/09 04:03:09;;;;;;;23.90;6.88;;;26.00;75.50;;;;;;5046522;28;20031;-76
2021/07/09 04:05:35;;;;;;;10.63;7.85;;;26.10;74.90;;;;;;5047215;28;20029;-78
2021/07/09 04:08:01;;;;;;;15.52;7.55;;;26.10;75.00;;;;;;5046005;28;20075;-77
2021/07/09 04:10:27;;;;;;;20.17;7.00;;;26.10;74.90;;;;;;5047353;28;20485;-77
2021/07/09 04:12:52;;;;;;;13.10;6.93;;;26.10;75.20;;;;;;5046594;28;20094;-78
2021/07/09 04:15:19;;;;;;;13.38;6.75;;;26.10;74.90;;;;;;5045902;28;20060;-77
2021/07/09 04:17:45;;;;;;;13.07;7.50;;;26.10;74.80;;;;;;5045182;28;20032;-78
2021/07/09 04:20:12;;;;;;;18.23;7.20;;;26.20;74.90;;;;;;5045177;28;20025;-78
2021/07/09 04:22:38;;;;;;;11.43;6.53;;;26.30;74.60;;;;;;5046634;28;20659;-78
2021/07/09 04:25:08;;;;;;;10.48;6.75;;;26.30;74.50;;;;;;5055300;28;20016;-78
2021/07/09 04:27:34;;;;;;;13.95;6.38;;;26.30;74.20;;;;;;5060989;28;20032;-76
2021/07/09 04:30:00;;;;;;;13.35;7.75;;;26.30;74.10;;;;;;5065513;28;20654;-78
2021/07/09 04:32:26;;;;;;;10.98;6.80;;;26.40;74.60;;;;;;5047557;28;20553;-78
2021/07/09 04:34:52;;;;;;;10.25;6.43;;;26.40;74.20;;;;;;5065453;28;20107;-78
2021/07/09 04:37:17;;;;;;;9.35;6.85;;;26.50;73.80;;;;;;5066710;28;20060;-78
2021/07/09 04:39:43;;;;;;;11.00;6.28;;;26.40;74.10;;;;;;5066001;28;20543;-78
2021/07/09 04:42:11;;;;;;;11.30;6.55;;;26.40;74.10;;;;;;5047750;28;20032;-78
2021/07/09 04:44:37;;;;;;;21.60;6.60;;;26.60;73.80;;;;;;5046998;28;20016;-78
2021/07/09 04:47:03;;;;;;;16.10;6.97;;;26.80;73.30;;;;;;5045550;28;20048;-78
2021/07/09 04:49:28;;;;;;;14.45;6.45;;;26.90;72.20;;;;;;5065510;28;20070;-77
2021/07/09 04:51:54;;;;;;;14.38;6.28;;;27.10;72.10;;;;;;5047246;28;20028;-78
2021/07/09 04:54:20;;;;;;;7.10;5.65;;;27.30;71.00;;;;;;5042508;28;20043;-79
2021/07/09 04:56:46;;;;;;;10.30;5.72;;;27.50;68.70;;;;;;5046411;28;20117;-78
2021/07/09 04:59:12;;;;;;;10.45;5.72;;;27.50;68.70;;;;;;5065562;28;20089;-77
2021/07/09 05:01:37;;;;;;;11.20;6.93;;;27.60;69.60;;;;;;5045030;28;20432;-78
2021/07/09 05:04:05;;;;;;;19.35;6.30;;;27.60;69.00;;;;;;5044646;28;20083;-78
2021/07/09 05:06:31;;;;;;;13.02;5.95;;;27.70;68.80;;;;;;5046599;28;20029;-77
2021/07/09 05:08:57;;;;;;;11.13;5.57;;;27.70;69.60;;;;;;5047389;28;20033;-78
2021/07/09 05:11:22;;;;;;;18.65;5.60;;;27.70;68.30;;;;;;5064673;28;20035;-78
2021/07/09 05:13:48;;;;;;;9.05;5.53;;;27.70;66.80;;;;;;5047484;28;20127;-79
2021/07/09 05:16:14;;;;;;;11.73;5.10;;;27.60;67.50;;;;;;5045850;28;20044;-78
2021/07/09 05:18:40;;;;;;;10.68;5.40;;;27.50;67.10;;;;;;5045156;28;20028;-78
2021/07/09 05:21:05;;;;;;;7.43;4.65;;;27.60;68.00;;;;;;5044577;28;20037;-77
2021/07/09 05:23:31;;;;;;;9.35;5.18;;;27.40;67.80;;;;;;5044940;28;20092;-77
2021/07/09 05:25:57;;;;;;;11.73;5.70;;;27.40;68.20;;;;;;5045778;28;20037;-78
2021/07/09 05:28:22;;;;;;;16.08;5.20;;;27.60;68.00;;;;;;5059520;28;20044;-78
2021/07/09 05:30:48;;;;;;;19.90;5.60;;;27.80;67.40;;;;;;5064445;28;20047;-77
2021/07/09 05:33:17;;;;;;;9.07;6.00;;;27.90;67.30;;;;;;5046049;28;20513;-77
2021/07/09 05:35:44;;;;;;;12.65;5.03;;;28.10;66.90;;;;;;5046089;28;20048;-77
2021/07/09 05:38:10;;;;;;;27.48;5.00;;;28.30;65.50;;;;;;5045285;28;20160;-77
2021/07/09 05:40:36;;;;;;;11.95;5.70;;;28.70;63.60;;;;;;5046110;28;20511;-78
2021/07/09 05:43:02;;;;;;;10.57;5.22;;;28.70;63.90;;;;;;5064615;28;20702;-75
2021/07/09 05:45:29;;;;;;;14.43;5.13;;;28.70;64.50;;;;;;5064511;28;20032;-77
2021/07/09 05:47:54;;;;;;;16.17;5.13;;;28.60;64.30;;;;;;5044634;28;20055;-77
2021/07/09 05:50:20;;;;;;;25.50;6.57;;;28.90;63.50;;;;;;5064514;28;20114;-78
2021/07/09 05:52:48;;;;;;;14.98;5.30;;;28.90;62.90;;;;;;5044326;28;20447;-77
2021/07/09 05:55:14;;;;;;;12.00;5.30;;;28.90;62.70;;;;;;5064816;28;20084;-77
2021/07/09 05:57:40;;;;;;;15.82;4.53;;;29.00;61.70;;;;;;5046424;28;20032;-78
2021/07/09 06:00:07;;;;;;;6.97;4.97;;;29.60;60.60;;;;;;5046516;28;20447;-78
2021/07/09 06:02:33;;;;;;;12.95;4.35;;;30.40;58.80;;;;;;5045971;28;20028;-78
2021/07/09 06:04:58;;;;;;;10.82;5.00;;;31.10;56.90;;;;;;5064377;28;20501;-78
2021/07/09 06:07:24;;;;;;;10.90;3.92;;;31.70;54.00;;;;;;5046235;28;20052;-78
2021/07/09 06:09:49;;;;;;;12.32;4.70;;;31.90;53.40;;;;;;5064726;28;20059;-78
2021/07/09 06:12:15;;;;;;;10.93;4.95;;;32.40;52.40;;;;;;5045744;28;20061;-78
2021/07/09 06:14:41;;;;;;;11.63;5.22;;;33.10;50.50;;;;;;5063573;28;20041;-79
2021/07/09 06:17:06;;;;;;;8.40;4.95;;;33.40;49.40;;;;;;5064641;28;20025;-78
2021/07/09 06:19:32;;;;;;;11.02;5.00;;;34.10;48.60;;;;;;5044804;28;20029;-80
2021/07/09 06:21:58;;;;;;;12.52;5.22;;;34.60;47.10;;;;;;5045994;28;20024;-78
2021/07/09 06:24:24;;;;;;;9.05;4.88;;;34.70;46.10;;;;;;5046554;28;20485;-79
2021/07/09 06:26:50;;;;;;;11.45;4.60;;;35.00;45.30;;;;;;5064198;28;20059;-78
2021/07/09 06:29:16;;;;;;;10.68;5.13;;;35.40;44.60;;;;;;5064182;28;20188;-79
2021/07/09 06:31:41;;;;;;;8.90;4.38;;;35.80;43.60;;;;;;5045904;28;20063;-79
2021/07/09 06:34:07;;;;;;;16.20;4.95;;;35.50;42.90;;;;;;5043604;28;20061;-79
2021/07/09 06:36:32;;;;;;;18.33;5.45;;;35.50;43.50;;;;;;5065565;28;20055;-79
2021/07/09 06:38:58;;;;;;;9.00;4.70;;;35.50;43.30;;;;;;5067576;28;20021;-79
2021/07/09 06:41:24;;;;;;;18.73;4.35;;;35.60;43.10;;;;;;5068005;28;20127;-78
2021/07/09 06:43:50;;;;;;;22.35;4.72;;;35.80;43.10;;;;;;5049458;28;20021;-79
2021/07/09 06:46:15;;;;;;;18.33;5.07;;;36.00;43.00;;;;;;5046564;28;20045;-80
2021/07/09 06:48:41;;;;;;;14.38;5.07;;;36.30;42.50;;;;;;5047304;28;20357;-79
2021/07/09 06:51:07;;;;;;;8.45;4.20;;;36.00;42.80;;;;;;5047901;28;20128;-78
2021/07/09 06:53:33;;;;;;;8.00;4.53;;;36.10;42.90;;;;;;5047682;28;20029;-78
2021/07/09 06:55:59;;;;;;;12.40;3.92;;;36.60;41.50;;;;;;5048841;28;20103;-78
2021/07/09 06:58:25;;;;;;;11.40;5.68;;;36.80;40.70;;;;;;5047590;28;20104;-78
2021/07/09 07:00:50;;;;;;;15.40;4.78;;;36.80;40.60;;;;;;5046233;28;20060;-79
2021/07/09 07:03:16;;;;;;;11.30;5.28;;;36.70;41.80;;;;;;5048129;28;20099;-79
2021/07/09 07:05:41;;;;;;;15.60;5.03;;;37.00;41.50;;;;;;5046341;28;20114;-79
2021/07/09 07:08:18;;;;;;;21.30;4.63;;;37.30;40.70;;;;;;5046258;28;20606;-78
2021/07/09 07:10:49;;;;;;;15.05;4.30;;;37.90;39.50;;;;;;5047081;28;20657;-79
2021/07/09 07:13:15;;;;;;;12.00;5.35;;;37.60;40.30;;;;;;5048055;28;20024;-79
2021/07/09 07:15:41;;;;;;;10.68;4.80;;;37.40;40.70;;;;;;5047137;28;20041;-77
2021/07/09 07:18:08;;;;;;;17.90;4.75;;;36.70;41.20;;;;;;5047223;28;20021;-79
2021/07/09 07:20:42;;;;;;;8.68;4.85;;;35.90;42.70;;;;;;5046876;28;20039;-79
2021/07/09 07:23:12;;;;;;;9.48;4.47;;;35.10;44.30;;;;;;5048461;28;20056;-79
2021/07/09 07:25:38;;;;;;;13.57;5.13;;;34.20;46.50;;;;;;5046723;28;20668;-78
2021/07/09 07:28:05;;;;;;;6.18;4.88;;;33.60;47.80;;;;;;5047751;28;20079;-79
2021/07/09 07:30:30;;;;;;;17.80;5.22;;;33.20;49.00;;;;;;5048018;28;20036;-78
2021/07/09 07:32:56;;;;;;;15.18;4.53;;;33.00;49.60;;;;;;5046899;28;20025;-78
2021/07/09 07:35:22;;;;;;;10.48;5.30;;;32.60;50.80;;;;;;5047760;28;20037;-77
2021/07/09 07:37:49;;;;;;;13.73;6.25;;;32.40;52.10;;;;;;5048366;28;20174;-79
2021/07/09 07:40:15;;;;;;;16.88;5.57;;;31.90;52.90;;;;;;5046835;28;20032;-78
2021/07/09 07:42:41;;;;;;;14.55;5.15;;;31.60;53.90;;;;;;5047888;28;20021;-79
2021/07/09 07:45:07;;;;;;;12.65;5.30;;;31.60;54.70;;;;;;5047712;28;20025;-79
2021/07/09 07:47:33;;;;;;;15.57;5.60;;;31.90;54.70;;;;;;5047196;28;20056;-78
2021/07/09 07:49:59;;;;;;;7.65;5.00;;;32.50;52.90;;;;;;5047560;28;20583;-78
2021/07/09 07:52:25;;;;;;;8.38;4.82;;;33.00;51.80;;;;;;5047920;28;20028;-78
2021/07/09 07:54:50;;;;;;;12.05;5.10;;;33.90;49.70;;;;;;5046369;28;20047;-79
2021/07/09 07:57:18;;;;;;;12.05;4.63;;;34.80;48.10;;;;;;5047638;28;20060;-79
2021/07/09 07:59:45;;;;;;;21.23;4.68;;;35.40;45.20;;;;;;5045376;28;20102;-76
2021/07/09 08:02:11;;;;;;;13.35;4.55;;;35.40;45.40;;;;;;5045812;28;20024;-79
2021/07/09 08:04:37;;;;;;;12.93;4.05;;;35.40;45.80;;;;;;5047651;28;20267;-79
2021/07/09 08:07:03;;;;;;;9.10;3.17;;;35.60;43.30;;;;;;5047424;28;20478;-79
2021/07/09 08:09:29;;;;;;;20.38;3.67;;;36.10;42.80;;;;;;5046979;28;20490;-79
2021/07/09 08:11:56;;;;;;;15.43;3.33;;;36.50;40.90;;;;;;5046202;28;20035;-79
2021/07/09 08:14:21;;;;;;;17.65;3.20;;;36.70;41.00;;;;;;5047206;28;20071;-79
2021/07/09 08:16:51;;;;;;;8.10;3.70;;;37.10;40.70;;;;;;5047164;28;20064;-79
2021/07/09 08:19:18;;;;;;;8.80;2.97;;;37.60;39.30;;;;;;5045813;28;20056;-79
2021/07/09 08:21:46;;;;;;;9.07;3.40;;;37.90;38.70;;;;;;5047428;28;20025;-79
2021/07/09 08:24:13;;;;;;;14.15;4.15;;;37.70;38.80;;;;;;5047229;28;20743;-79
2021/07/09 08:26:38;;;;;;;8.00;3.35;;;38.00;38.00;;;;;;5047040;28;20025;-79
2021/07/09 08:29:04;;;;;;;18.73;3.78;;;37.90;38.40;;;;;;5046334;28;20528;-79
2021/07/09 08:31:30;;;;;;;11.90;3.60;;;37.20;39.00;;;;;;5045744;28;20027;-78
2021/07/09 08:33:56;;;;;;;13.02;3.58;;;36.70;39.90;;;;;;5046737;28;20021;-79
2021/07/09 08:36:23;;;;;;;13.93;3.72;;;36.10;40.60;;;;;;5045414;28;20083;-79
2021/07/09 08:38:49;;;;;;;23.40;3.90;;;36.10;41.40;;;;;;5046870;28;20047;-79
2021/07/09 08:41:15;;;;;;;29.95;5.13;;;35.90;41.70;;;;;;5045698;28;20033;-78
2021/07/09 08:43:40;;;;;;;34.30;4.60;;;36.30;41.40;;;;;;5046209;28;20393;-79
2021/07/09 08:46:06;;;;;;;9.55;3.22;;;36.60;41.60;;;;;;5045810;28;20542;-79
2021/07/09 08:48:34;;;;;;;12.93;3.65;;;36.90;40.60;;;;;;5046604;28;20032;-79
2021/07/09 08:51:00;;;;;;;18.33;3.90;;;36.90;39.60;;;;;;5045816;28;20067;-79
2021/07/09 08:53:26;;;;;;;8.98;2.85;;;36.80;39.70;;;;;;5045404;28;20128;-79
2021/07/09 08:55:51;;;;;;;5.50;2.65;;;36.70;39.70;;;;;;5046264;28;20565;-78
2021/07/09 08:58:17;;;;;;;18.52;3.17;;;36.50;39.40;;;;;;5046242;28;20108;-79
2021/07/09 09:00:44;;;;;;;7.22;3.47;;;36.10;40.40;;;;;;5045240;28;20501;-78
2021/07/09 09:03:13;;;;;;;12.88;3.22;;;35.70;40.30;;;;;;5045417;28;20409;-78
2021/07/09 09:05:39;;;;;;;12.05;2.80;;;35.30;40.60;;;;;;5046388;28;20029;-79
2021/07/09 09:08:06;;;;;;;8.57;3.13;;;35.10;40.80;;;;;;5046469;28;20033;-78
2021/07/09 09:10:45;;;;;;;13.35;3.38;;;34.50;41.80;;;;;;5046661;28;20028;-79
2021/07/09 09:13:14;;;;;;;13.20;3.22;;;34.00;43.20;;;;;;5046374;28;20437;-79
2021/07/09 09:15:42;;;;;;;12.52;3.28;;;33.70;44.10;;;;;;5045519;28;20414;-78
2021/07/09 09:18:25;;;;;;;9.60;3.00;;;33.50;44.20;;;;;;5044910;28;20069;-79
2021/07/09 09:21:01;;;;;;;14.43;3.45;;;33.10;44.80;;;;;;5045064;28;20040;-79
2021/07/09 09:23:27;;;;;;;;;;;32.90;45.80;;;;;;5047434;28;20375;-78
2021/07/09 09:25:53;;;;;;;7.88;3.42;;;32.80;45.30;;;;;;5045233;28;20396;-79
2021/07/09 09:28:20;;;;;;;18.50;3.50;;;32.70;46.00;;;;;;5044900;28;20142;-82
2021/07/09 09:30:50;;;;;;;8.50;3.10;;;32.70;46.70;;;;;;5046830;28;20142;-80
2021/07/09 09:33:15;;;;;;;17.20;3.85;;;32.60;46.60;;;;;;5045932;28;20028;-80
2021/07/09 09:36:03;;;;;;;11.45;3.10;;;32.40;46.90;;;;;;5046659;28;20432;-80
2021/07/09 09:38:29;;;;;;;9.85;3.80;;;32.20;47.70;;;;;;5046410;28;20060;-81
2021/07/09 09:40:57;;;;;;;28.20;4.20;;;32.00;48.00;;;;;;5045231;28;20035;-81
2021/07/09 09:43:27;;;;;;;19.33;5.00;;;31.10;54.90;;;;;;5046101;28;20032;-82
2021/07/09 09:45:57;;;;;;;14.00;4.43;;;30.00;61.40;;;;;;5047026;28;20494;-82
2021/07/09 09:48:22;;;;;;;11.68;5.13;;;29.10;66.20;;;;;;5029038;28;20033;-82
2021/07/09 09:50:50;;;;;;;12.25;5.47;;;28.60;69.60;;;;;;5047228;28;20456;-82
2021/07/09 09:53:32;;;;;;;10.60;5.13;;;28.40;73.50;;;;;;5046301;28;20063;-81
2021/07/09 09:56:07;;;;;;;14.60;5.07;;;28.30;79.10;;;;;;5027910;28;20084;-81
2021/07/09 09:58:34;;;;;;;10.30;4.88;;;28.40;79.40;;;;;;5045818;28;20028;-80
2021/07/09 10:01:00;;;;;;;11.55;5.32;;;28.30;78.80;;;;;;5046873;28;20108;-81
2021/07/09 10:03:26;;;;;;;18.67;7.28;;;28.40;78.70;;;;;;5046046;28;20033;-80
2021/07/09 10:05:52;;;;;;;10.20;4.80;;;28.40;78.50;;;;;;5028938;28;20044;-87
2021/07/09 10:08:20;;;;;;;14.93;5.65;;;28.40;79.80;;;;;;5028977;28;20021;-82
2021/07/09 10:10:47;;;;;;;20.20;5.57;;;28.50;80.20;;;;;;5030378;28;20043;-81
2021/07/09 10:13:16;;;;;;;11.23;5.38;;;28.60;81.60;;;;;;5049749;28;20025;-82
2021/07/09 10:15:44;;;;;;;14.23;5.22;;;28.80;79.30;;;;;;5034856;28;20535;-81
2021/07/09 10:18:17;;;;;;;19.55;5.38;;;28.90;78.00;;;;;;5047949;28;20401;-81
2021/07/09 10:20:45;;;;;;;18.58;4.85;;;29.20;77.00;;;;;;5048173;28;20056;-80
2021/07/09 10:23:15;;;;;;;15.52;5.00;;;29.40;73.80;;;;;;5049983;28;20021;-81
2021/07/09 10:25:45;;;;;;;15.65;4.32;;;29.70;72.90;;;;;;5048800;28;20037;-82
2021/07/09 10:28:11;;;;;;;10.93;4.57;;;29.90;70.90;;;;;;5048147;28;20032;-82
2021/07/09 10:30:42;;;;;;;9.93;4.10;;;30.10;69.30;;;;;;5049799;28;20104;-81
2021/07/09 10:33:34;;;;;;;9.60;3.97;;;30.20;67.90;;;;;;5048302;28;20029;-80
2021/07/09 10:36:05;;;;;;;7.45;4.45;;;30.40;68.40;;;;;;5047995;28;20053;-81
2021/07/09 10:38:40;;;;;;;9.15;4.15;;;30.50;68.90;;;;;;5049683;28;20028;-80
2021/07/09 10:41:18;;;;;;;8.50;4.03;;;30.70;68.50;;;;;;5069236;28;20025;-80
2021/07/09 10:44:15;;;;;;;16.67;3.80;;;30.90;66.70;;;;;;5068936;28;20386;-80
2021/07/09 10:46:42;;;;;;;16.02;4.43;;;31.00;63.70;;;;;;5051115;28;20081;-80
2021/07/09 10:49:08;;;;;;;22.33;4.70;;;31.20;64.20;;;;;;5069332;28;20028;-80
2021/07/09 10:51:50;;;;;;;10.75;4.38;;;31.20;64.70;;;;;;5068471;28;20173;-80
2021/07/09 10:54:30;;;;;;;10.35;4.53;;;31.40;64.20;;;;;;5069183;28;20021;-80
2021/07/09 10:57:21;;;;;;;16.58;4.72;;;31.50;62.40;;;;;;5050588;28;20045;-81
2021/07/09 11:00:21;;;;;;;8.95;4.55;;;31.70;63.40;;;;;;5068568;28;20052;-80
2021/07/09 11:03:00;;;;;;;10.20;3.40;;;32.00;61.20;;;;;;5051305;28;20677;-81
2021/07/09 11:05:47;;;;;;;6.20;3.70;;;32.30;59.40;;;;;;5050753;28;20029;-81
2021/07/09 11:08:34;;;;;;;6.90;3.33;;;32.40;58.30;;;;;;5050775;28;20447;-80
2021/07/09 11:11:06;;;;;;;12.68;4.43;;;32.40;57.60;;;;;;5068627;28;20553;-80
2021/07/09 11:13:44;;;;;;;9.75;3.17;;;32.40;56.60;;;;;;5050461;28;20446;-80
2021/07/09 11:16:32;;;;;;;10.88;3.85;;;32.40;56.90;;;;;;5050666;28;20523;-80
2021/07/09 11:19:04;;;;;;;8.63;3.83;;;32.40;56.30;;;;;;5050387;28;20035;-80
2021/07/09 11:21:30;;;;;;;10.00;3.70;;;32.30;55.40;;;;;;5049086;28;20429;-80
2021/07/09 11:23:57;;;;;;;14.30;4.32;;;32.20;55.70;;;;;;5050159;28;20059;-81
2021/07/09 11:26:23;;;;;;;15.10;3.40;;;32.40;55.30;;;;;;5068045;28;20050;-81
2021/07/09 11:28:49;;;;;;;11.38;3.90;;;32.40;53.60;;;;;;5046004;28;20423;-79
2021/07/09 11:31:39;;;;;;;21.92;4.00;;;32.20;53.30;;;;;;5046675;28;20021;-80
2021/07/09 11:34:13;;;;;;;14.32;4.20;;;32.00;53.30;;;;;;5046843;28;20040;-80
2021/07/09 11:36:42;;;;;;;13.10;4.22;;;31.60;55.20;;;;;;5046769;28;20060;-81
2021/07/09 11:39:09;;;;;;;14.38;3.60;;;31.50;55.40;;;;;;5047816;28;20029;-80
2021/07/09 11:41:59;;;;;;;12.07;4.72;;;31.40;55.60;;;;;;5046298;28;20052;-80
2021/07/09 11:44:27;;;;;;;8.13;4.85;;;31.30;56.90;;;;;;5048421;28;20044;-79
2021/07/09 11:46:56;;;;;;;10.38;5.22;;;31.20;56.70;;;;;;5038476;28;20074;-80
2021/07/09 11:49:26;;;;;;;19.52;4.97;;;31.10;56.20;;;;;;5049923;28;20568;-80
2021/07/09 11:51:55;;;;;;;15.05;4.68;;;30.90;57.70;;;;;;5050223;28;20780;-79
2021/07/09 11:54:26;;;;;;;8.77;5.00;;;30.80;58.10;;;;;;5049961;28;20107;-80
2021/07/09 11:56:54;;;;;;;11.05;5.55;;;30.80;58.00;;;;;;5047983;28;20050;-80
2021/07/09 11:59:20;;;;;;;12.73;4.85;;;30.60;58.20;;;;;;5067598;28;20028;-80
2021/07/09 12:02:07;;;;;;;14.05;5.15;;;30.40;58.70;;;;;;5067930;28;20056;-79
2021/07/09 12:04:35;;;;;;;;;;;30.20;59.40;;;;;;5050134;28;20027;-80
2021/07/09 12:07:28;;;;;;;22.20;5.95;;;30.00;60.80;;;;;;5049767;28;20273;-78
2021/07/09 12:10:01;;;;;;;12.90;5.15;;;29.90;61.40;;;;;;5050001;28;20035;-80
2021/07/09 12:12:30;;;;;;;13.57;4.57;;;29.80;62.50;;;;;;5067328;28;20024;-80
2021/07/09 12:15:09;;;;;;;6.95;4.78;;;29.60;62.40;;;;;;5067188;28;20037;-81
2021/07/09 12:17:38;;;;;;;19.13;5.93;;;29.60;63.30;;;;;;5067528;28;20497;-80
2021/07/09 12:20:08;;;;;;;12.43;5.80;;;29.60;63.30;;;;;;5049043;28;20033;-79
2021/07/09 12:22:41;;;;;;;11.95;5.93;;;29.60;63.60;;;;;;5067388;28;20028;-80
2021/07/09 12:25:11;;;;;;;17.23;5.72;;;29.70;64.50;;;;;;5067077;28;20028;-80
2021/07/09 12:27:38;;;;;;;26.77;6.43;;;29.70;64.50;;;;;;5066842;28;20028;-81
2021/07/09 12:30:19;;;;;;;14.50;5.72;;;29.80;64.40;;;;;;5049138;28;20036;-80
2021/07/09 12:32:50;;;;;;;13.07;6.07;;;29.90;65.00;;;;;;5067251;28;20093;-81
2021/07/09 12:35:17;;;;;;;28.10;6.97;;;30.00;65.00;;;;;;5065910;28;20089;-80
2021/07/09 12:37:43;;;;;;;15.00;6.05;;;30.00;64.20;;;;;;5066813;28;20089;-81
2021/07/09 12:40:12;;;;;;;14.73;5.78;;;30.30;63.80;;;;;;5048945;28;20161;-80
2021/07/09 12:42:38;;;;;;;14.80;6.18;;;30.40;62.70;;;;;;5048722;28;20237;-80
2021/07/09 12:45:05;;;;;;;17.38;6.60;;;30.50;60.70;;;;;;5048951;28;20044;-81